sensor_id;sensor_type;location;lat;lon;timestamp;pressure;altitude;pressure_sealevel;temperature;humidity
50011;BME280;35899;50.352;19.390;2023-03-30T00:00:32;97828.36;;;2.19;62.05
50011;BME280;35899;50.352;19.390;2023-03-30T00:03:16;97822.75;;;2.22;62.19
50011;BME280;35899;50.352;19.390;2023-03-30T00:05:42;97826.05;;;2.25;62.20
50011;BME280;35899;50.352;19.390;2023-03-30T00:08:09;97823.05;;;2.28;62.31
50011;BME280;35899;50.352;19.390;2023-03-30T00:10:35;97822.63;;;2.30;62.19
50011;BME280;35899;50.352;19.390;2023-03-30T00:13:02;97820.99;;;2.32;62.42
50011;BME280;35899;50.352;19.390;2023-03-30T00:15:28;97822.10;;;2.35;62.54
50011;BME280;35899;50.352;19.390;2023-03-30T00:17:54;97819.28;;;2.37;62.74
50011;BME280;35899;50.352;19.390;2023-03-30T00:20:21;97815.29;;;2.39;62.78
50011;BME280;35899;50.352;19.390;2023-03-30T00:22:48;97817.20;;;2.43;62.84
50011;BME280;35899;50.352;19.390;2023-03-30T00:25:15;97812.66;;;2.45;62.92
50011;BME280;35899;50.352;19.390;2023-03-30T00:27:42;97811.25;;;2.46;62.93
50011;BME280;35899;50.352;19.390;2023-03-30T00:30:11;97809.29;;;2.48;63.15
50011;BME280;35899;50.352;19.390;2023-03-30T00:32:39;97804.92;;;2.51;63.29
50011;BME280;35899;50.352;19.390;2023-03-30T00:35:05;97802.45;;;2.53;63.35
50011;BME280;35899;50.352;19.390;2023-03-30T00:37:32;97800.70;;;2.53;63.49
50011;BME280;35899;50.352;19.390;2023-03-30T00:39:58;97794.48;;;2.56;63.45
50011;BME280;35899;50.352;19.390;2023-03-30T00:42:25;97793.58;;;2.57;63.50
50011;BME280;35899;50.352;19.390;2023-03-30T00:47:23;97790.34;;;2.61;63.60
50011;BME280;35899;50.352;19.390;2023-03-30T00:49:50;97787.54;;;2.63;63.73
50011;BME280;35899;50.352;19.390;2023-03-30T00:52:17;97782.53;;;2.64;63.66
50011;BME280;35899;50.352;19.390;2023-03-30T00:54:44;97782.66;;;2.65;63.61
50011;BME280;35899;50.352;19.390;2023-03-30T00:57:12;97782.14;;;2.65;63.63
50011;BME280;35899;50.352;19.390;2023-03-30T00:59:39;97785.75;;;2.65;63.69
50011;BME280;35899;50.352;19.390;2023-03-30T01:02:05;97784.29;;;2.63;63.51
50011;BME280;35899;50.352;19.390;2023-03-30T01:04:32;97780.98;;;2.64;63.44
50011;BME280;35899;50.352;19.390;2023-03-30T01:06:59;97777.88;;;2.65;63.52
50011;BME280;35899;50.352;19.390;2023-03-30T01:09:25;97774.56;;;2.66;63.59
50011;BME280;35899;50.352;19.390;2023-03-30T01:11:52;97769.66;;;2.65;63.69
50011;BME280;35899;50.352;19.390;2023-03-30T01:14:18;97771.09;;;2.64;63.74
50011;BME280;35899;50.352;19.390;2023-03-30T01:34:48;97752.50;;;2.75;64.80
50011;BME280;35899;50.352;19.390;2023-03-30T01:37:24;97748.36;;;2.77;64.88
50011;BME280;35899;50.352;19.390;2023-03-30T01:49:57;97744.65;;;2.84;65.28
50011;BME280;35899;50.352;19.390;2023-03-30T01:52:41;97742.36;;;2.85;65.35
50011;BME280;35899;50.352;19.390;2023-03-30T01:55:13;97740.61;;;2.86;65.20
50011;BME280;35899;50.352;19.390;2023-03-30T01:57:44;97735.75;;;2.88;65.29
50011;BME280;35899;50.352;19.390;2023-03-30T02:00:16;97734.27;;;2.90;65.17
50011;BME280;35899;50.352;19.390;2023-03-30T02:02:50;97729.91;;;2.92;65.28
50011;BME280;35899;50.352;19.390;2023-03-30T02:05:19;97725.23;;;2.94;65.31
50011;BME280;35899;50.352;19.390;2023-03-30T02:07:48;97723.65;;;2.95;64.93
50011;BME280;35899;50.352;19.390;2023-03-30T02:10:15;97725.46;;;2.97;64.96
50011;BME280;35899;50.352;19.390;2023-03-30T02:12:43;97728.14;;;2.98;64.83
50011;BME280;35899;50.352;19.390;2023-03-30T02:15:11;97729.24;;;3.00;64.99
50011;BME280;35899;50.352;19.390;2023-03-30T02:17:40;97729.58;;;3.00;65.16
50011;BME280;35899;50.352;19.390;2023-03-30T02:20:06;97728.98;;;2.98;65.03
50011;BME280;35899;50.352;19.390;2023-03-30T02:22:33;97726.89;;;2.95;65.13
50011;BME280;35899;50.352;19.390;2023-03-30T02:24:59;97726.31;;;2.93;65.15
50011;BME280;35899;50.352;19.390;2023-03-30T02:27:26;97725.46;;;2.89;65.19
50011;BME280;35899;50.352;19.390;2023-03-30T02:29:53;97724.99;;;2.84;65.18
50011;BME280;35899;50.352;19.390;2023-03-30T02:32:24;97727.39;;;2.80;65.07
50011;BME280;35899;50.352;19.390;2023-03-30T02:37:41;97723.95;;;2.71;65.24
50011;BME280;35899;50.352;19.390;2023-03-30T02:50:49;97720.48;;;2.57;65.53
50011;BME280;35899;50.352;19.390;2023-03-30T02:53:42;97721.17;;;2.56;65.79
50011;BME280;35899;50.352;19.390;2023-03-30T02:56:20;97716.96;;;2.55;65.71
50011;BME280;35899;50.352;19.390;2023-03-30T03:01:34;97709.17;;;2.53;65.79
50011;BME280;35899;50.352;19.390;2023-03-30T03:04:13;97707.13;;;2.53;65.67
50011;BME280;35899;50.352;19.390;2023-03-30T03:06:59;97706.57;;;2.54;65.82
50011;BME280;35899;50.352;19.390;2023-03-30T03:09:26;97706.33;;;2.56;65.83
50011;BME280;35899;50.352;19.390;2023-03-30T03:11:52;97703.69;;;2.58;65.95
50011;BME280;35899;50.352;19.390;2023-03-30T03:14:19;97705.34;;;2.59;65.92
50011;BME280;35899;50.352;19.390;2023-03-30T03:16:46;97698.29;;;2.60;66.08
50011;BME280;35899;50.352;19.390;2023-03-30T03:19:14;97699.64;;;2.60;66.05
50011;BME280;35899;50.352;19.390;2023-03-30T03:21:40;97693.33;;;2.60;65.96
50011;BME280;35899;50.352;19.390;2023-03-30T03:24:07;97692.14;;;2.60;66.15
50011;BME280;35899;50.352;19.390;2023-03-30T03:26:56;97686.76;;;2.58;66.22
50011;BME280;35899;50.352;19.390;2023-03-30T03:29:27;97683.24;;;2.57;66.28
50011;BME280;35899;50.352;19.390;2023-03-30T03:31:55;97680.79;;;2.54;66.32
50011;BME280;35899;50.352;19.390;2023-03-30T03:34:25;97678.20;;;2.51;66.32
50011;BME280;35899;50.352;19.390;2023-03-30T03:36:57;97675.49;;;2.49;66.39
50011;BME280;35899;50.352;19.390;2023-03-30T03:39:26;97670.10;;;2.48;66.47
50011;BME280;35899;50.352;19.390;2023-03-30T03:41:59;97666.17;;;2.44;66.53
50011;BME280;35899;50.352;19.390;2023-03-30T03:44:25;97651.61;;;2.41;66.48
50011;BME280;35899;50.352;19.390;2023-03-30T03:46:52;97644.52;;;2.39;66.64
50011;BME280;35899;50.352;19.390;2023-03-30T03:49:18;97640.78;;;2.39;66.74
50011;BME280;35899;50.352;19.390;2023-03-30T03:51:45;97641.78;;;2.39;66.93
50011;BME280;35899;50.352;19.390;2023-03-30T03:54:11;97646.84;;;2.37;66.81
50011;BME280;35899;50.352;19.390;2023-03-30T03:56:41;97652.91;;;2.34;66.73
50011;BME280;35899;50.352;19.390;2023-03-30T03:59:08;97650.84;;;2.35;66.71
50011;BME280;35899;50.352;19.390;2023-03-30T04:01:34;97651.60;;;2.37;66.64
50011;BME280;35899;50.352;19.390;2023-03-30T04:04:01;97646.05;;;2.39;66.63
50011;BME280;35899;50.352;19.390;2023-03-30T04:06:27;97642.67;;;2.42;66.76
50011;BME280;35899;50.352;19.390;2023-03-30T04:08:54;97638.48;;;2.45;66.97
50011;BME280;35899;50.352;19.390;2023-03-30T04:11:29;97638.87;;;2.47;66.83
50011;BME280;35899;50.352;19.390;2023-03-30T04:14:14;97640.70;;;2.48;66.74
50011;BME280;35899;50.352;19.390;2023-03-30T04:17:00;97640.91;;;2.52;66.74
50011;BME280;35899;50.352;19.390;2023-03-30T04:19:49;97640.98;;;2.54;66.66
50011;BME280;35899;50.352;19.390;2023-03-30T04:22:36;97641.56;;;2.57;67.08
50011;BME280;35899;50.352;19.390;2023-03-30T04:25:03;97639.44;;;2.58;67.12
50011;BME280;35899;50.352;19.390;2023-03-30T04:27:55;97636.32;;;2.59;67.23
50011;BME280;35899;50.352;19.390;2023-03-30T04:30:50;97633.41;;;2.60;67.19
50011;BME280;35899;50.352;19.390;2023-03-30T04:33:51;97630.30;;;2.60;67.25
50011;BME280;35899;50.352;19.390;2023-03-30T04:36:36;97631.13;;;2.61;67.28
50011;BME280;35899;50.352;19.390;2023-03-30T04:39:25;97626.87;;;2.61;67.31
50011;BME280;35899;50.352;19.390;2023-03-30T04:42:04;97621.82;;;2.63;67.17
50011;BME280;35899;50.352;19.390;2023-03-30T04:44:43;97615.55;;;2.65;67.21
50011;BME280;35899;50.352;19.390;2023-03-30T04:47:33;97612.14;;;2.69;67.13
50011;BME280;35899;50.352;19.390;2023-03-30T04:50:38;97608.36;;;2.73;67.25
50011;BME280;35899;50.352;19.390;2023-03-30T04:53:25;97602.23;;;2.77;67.26
50011;BME280;35899;50.352;19.390;2023-03-30T04:56:10;97600.02;;;2.81;67.31
50011;BME280;35899;50.352;19.390;2023-03-30T04:58:55;97597.98;;;2.84;67.39
50011;BME280;35899;50.352;19.390;2023-03-30T05:01:33;97596.27;;;2.88;67.53
50011;BME280;35899;50.352;19.390;2023-03-30T05:04:26;97597.35;;;2.95;67.31
50011;BME280;35899;50.352;19.390;2023-03-30T05:07:05;97594.96;;;2.99;67.47
50011;BME280;35899;50.352;19.390;2023-03-30T05:10:04;97592.39;;;3.03;67.44
50011;BME280;35899;50.352;19.390;2023-03-30T05:12:52;97590.18;;;3.06;67.47
50011;BME280;35899;50.352;19.390;2023-03-30T05:15:51;97580.84;;;3.12;67.59
50011;BME280;35899;50.352;19.390;2023-03-30T05:18:36;97583.44;;;3.19;67.58
50011;BME280;35899;50.352;19.390;2023-03-30T05:21:16;97586.08;;;3.25;67.54
50011;BME280;35899;50.352;19.390;2023-03-30T05:24:06;97582.31;;;3.32;67.76
50011;BME280;35899;50.352;19.390;2023-03-30T05:26:51;97577.17;;;3.40;67.52
50011;BME280;35899;50.352;19.390;2023-03-30T05:29:20;97574.60;;;3.47;67.53
50011;BME280;35899;50.352;19.390;2023-03-30T05:31:56;97571.91;;;3.54;67.58
50011;BME280;35899;50.352;19.390;2023-03-30T05:34:55;97570.19;;;3.61;67.60
50011;BME280;35899;50.352;19.390;2023-03-30T05:37:49;97567.48;;;3.68;67.49
50011;BME280;35899;50.352;19.390;2023-03-30T05:40:26;97568.80;;;3.76;67.24
50011;BME280;35899;50.352;19.390;2023-03-30T05:43:19;97569.66;;;3.83;67.40
50011;BME280;35899;50.352;19.390;2023-03-30T05:45:46;97563.85;;;3.89;67.51
50011;BME280;35899;50.352;19.390;2023-03-30T05:48:33;97562.92;;;3.98;67.53
50011;BME280;35899;50.352;19.390;2023-03-30T05:51:09;97566.98;;;4.06;67.54
50011;BME280;35899;50.352;19.390;2023-03-30T05:53:45;97566.26;;;4.14;67.32
50011;BME280;35899;50.352;19.390;2023-03-30T05:56:32;97561.45;;;4.21;67.40
50011;BME280;35899;50.352;19.390;2023-03-30T05:59:17;97563.00;;;4.27;67.23
50011;BME280;35899;50.352;19.390;2023-03-30T06:02:05;97556.59;;;4.33;67.15
50011;BME280;35899;50.352;19.390;2023-03-30T06:04:34;97557.09;;;4.40;67.14
50011;BME280;35899;50.352;19.390;2023-03-30T06:07:01;97552.00;;;4.48;67.29
50011;BME280;35899;50.352;19.390;2023-03-30T06:09:30;97550.48;;;4.58;66.98
50011;BME280;35899;50.352;19.390;2023-03-30T06:11:58;97551.91;;;4.67;66.59
50011;BME280;35899;50.352;19.390;2023-03-30T06:14:25;97547.13;;;4.76;66.61
50011;BME280;35899;50.352;19.390;2023-03-30T06:17:11;97551.29;;;4.92;66.68
50011;BME280;35899;50.352;19.390;2023-03-30T06:19:38;97553.26;;;5.06;66.53
50011;BME280;35899;50.352;19.390;2023-03-30T06:22:08;97557.03;;;5.19;66.51
50011;BME280;35899;50.352;19.390;2023-03-30T06:25:04;97554.81;;;5.35;66.48
50011;BME280;35899;50.352;19.390;2023-03-30T06:27:31;97553.84;;;5.46;66.13
50011;BME280;35899;50.352;19.390;2023-03-30T06:29:58;97554.39;;;5.55;65.89
50011;BME280;35899;50.352;19.390;2023-03-30T06:32:29;97547.83;;;5.62;65.84
50011;BME280;35899;50.352;19.390;2023-03-30T06:35:25;97543.39;;;5.73;65.71
50011;BME280;35899;50.352;19.390;2023-03-30T06:37:54;97543.25;;;5.82;65.60
50011;BME280;35899;50.352;19.390;2023-03-30T06:40:20;97532.02;;;5.93;65.73
50011;BME280;35899;50.352;19.390;2023-03-30T06:42:48;97538.70;;;6.02;65.61
50011;BME280;35899;50.352;19.390;2023-03-30T06:45:33;97533.05;;;6.14;65.24
50011;BME280;35899;50.352;19.390;2023-03-30T06:48:04;97537.45;;;6.26;65.22
50011;BME280;35899;50.352;19.390;2023-03-30T06:50:31;97530.16;;;6.37;64.94
50011;BME280;35899;50.352;19.390;2023-03-30T06:53:01;97526.77;;;6.48;64.92
50011;BME280;35899;50.352;19.390;2023-03-30T06:55:33;97524.48;;;6.57;65.07
50011;BME280;35899;50.352;19.390;2023-03-30T06:58:08;97529.72;;;6.67;64.93
50011;BME280;35899;50.352;19.390;2023-03-30T07:00:56;97529.79;;;6.77;64.52
50011;BME280;35899;50.352;19.390;2023-03-30T07:04:02;97527.14;;;6.86;64.34
50011;BME280;35899;50.352;19.390;2023-03-30T07:06:51;97525.22;;;6.95;64.17
50011;BME280;35899;50.352;19.390;2023-03-30T07:09:17;97519.75;;;7.00;64.08
50011;BME280;35899;50.352;19.390;2023-03-30T07:11:44;97515.02;;;7.07;63.92
50011;BME280;35899;50.352;19.390;2023-03-30T07:14:11;97507.27;;;7.16;63.72
50011;BME280;35899;50.352;19.390;2023-03-30T07:16:37;97514.20;;;7.23;63.72
50011;BME280;35899;50.352;19.390;2023-03-30T07:19:04;97512.47;;;7.32;63.63
50011;BME280;35899;50.352;19.390;2023-03-30T07:21:31;97517.75;;;7.38;63.44
50011;BME280;35899;50.352;19.390;2023-03-30T07:23:58;97522.50;;;7.39;63.21
50011;BME280;35899;50.352;19.390;2023-03-30T07:26:32;97520.66;;;7.41;63.09
50011;BME280;35899;50.352;19.390;2023-03-30T07:29:04;97513.92;;;7.49;63.15
50011;BME280;35899;50.352;19.390;2023-03-30T07:31:30;97505.00;;;7.62;62.92
50011;BME280;35899;50.352;19.390;2023-03-30T07:33:57;97500.42;;;7.74;62.78
50011;BME280;35899;50.352;19.390;2023-03-30T07:36:24;97497.50;;;7.85;62.52
50011;BME280;35899;50.352;19.390;2023-03-30T07:38:51;97486.58;;;7.96;61.87
50011;BME280;35899;50.352;19.390;2023-03-30T07:41:18;97481.27;;;8.04;61.48
50011;BME280;35899;50.352;19.390;2023-03-30T07:43:48;97477.61;;;8.12;61.44
50011;BME280;35899;50.352;19.390;2023-03-30T07:46:15;97487.00;;;8.23;61.36
50011;BME280;35899;50.352;19.390;2023-03-30T07:48:44;97496.79;;;8.42;61.23
50011;BME280;35899;50.352;19.390;2023-03-30T07:51:11;97488.40;;;8.64;61.37
50011;BME280;35899;50.352;19.390;2023-03-30T07:53:47;97484.46;;;8.88;60.36
50011;BME280;35899;50.352;19.390;2023-03-30T07:56:20;97487.38;;;9.13;60.80
50011;BME280;35899;50.352;19.390;2023-03-30T07:58:48;97484.33;;;9.34;60.28
50011;BME280;35899;50.352;19.390;2023-03-30T08:01:16;97474.92;;;9.52;60.23
50011;BME280;35899;50.352;19.390;2023-03-30T08:04:02;97472.23;;;9.74;59.71
50011;BME280;35899;50.352;19.390;2023-03-30T08:06:30;97475.61;;;9.99;58.96
50011;BME280;35899;50.352;19.390;2023-03-30T08:08:57;97479.15;;;10.23;57.20
50011;BME280;35899;50.352;19.390;2023-03-30T08:11:24;97483.23;;;10.45;57.02
50011;BME280;35899;50.352;19.390;2023-03-30T08:13:51;97476.83;;;10.70;57.14
50011;BME280;35899;50.352;19.390;2023-03-30T08:16:17;97473.57;;;10.87;56.93
50011;BME280;35899;50.352;19.390;2023-03-30T08:18:44;97466.58;;;10.90;56.17
50011;BME280;35899;50.352;19.390;2023-03-30T08:21:11;97467.78;;;10.88;55.77
50011;BME280;35899;50.352;19.390;2023-03-30T08:23:37;97463.98;;;10.82;55.10
50011;BME280;35899;50.352;19.390;2023-03-30T08:26:04;97473.70;;;10.76;55.29
50011;BME280;35899;50.352;19.390;2023-03-30T08:28:31;97467.94;;;10.80;54.37
50011;BME280;35899;50.352;19.390;2023-03-30T08:31:07;97466.77;;;10.83;55.03
50011;BME280;35899;50.352;19.390;2023-03-30T08:33:34;97464.94;;;10.98;55.46
50011;BME280;35899;50.352;19.390;2023-03-30T08:36:00;97464.29;;;11.23;55.37
50011;BME280;35899;50.352;19.390;2023-03-30T08:38:30;97458.30;;;11.55;55.06
50011;BME280;35899;50.352;19.390;2023-03-30T08:40:57;97450.45;;;11.75;53.40
50011;BME280;35899;50.352;19.390;2023-03-30T08:46:10;97447.67;;;12.00;53.23
50011;BME280;35899;50.352;19.390;2023-03-30T08:48:38;97449.36;;;12.11;53.24
50011;BME280;35899;50.352;19.390;2023-03-30T08:53:44;97443.33;;;12.35;52.48
50011;BME280;35899;50.352;19.390;2023-03-30T08:56:27;97446.23;;;12.48;52.24
50011;BME280;35899;50.352;19.390;2023-03-30T09:04:15;97432.34;;;12.76;51.95
50011;BME280;35899;50.352;19.390;2023-03-30T09:09:15;97419.45;;;13.07;51.28
50011;BME280;35899;50.352;19.390;2023-03-30T09:11:43;97409.66;;;13.29;50.53
50011;BME280;35899;50.352;19.390;2023-03-30T09:14:13;97402.16;;;13.39;49.95
50011;BME280;35899;50.352;19.390;2023-03-30T09:16:51;97397.80;;;13.47;50.26
50011;BME280;35899;50.352;19.390;2023-03-30T09:19:26;97402.98;;;13.55;49.69
50011;BME280;35899;50.352;19.390;2023-03-30T09:22:02;97402.27;;;13.54;48.87
50011;BME280;35899;50.352;19.390;2023-03-30T09:24:30;97393.26;;;13.55;49.09
50011;BME280;35899;50.352;19.390;2023-03-30T09:26:58;97388.14;;;13.60;48.99
50011;BME280;35899;50.352;19.390;2023-03-30T09:29:29;97386.92;;;13.65;49.42
50011;BME280;35899;50.352;19.390;2023-03-30T09:32:13;97387.58;;;13.78;49.51
50011;BME280;35899;50.352;19.390;2023-03-30T09:37:10;97379.54;;;14.10;48.17
50011;BME280;35899;50.352;19.390;2023-03-30T09:39:38;97375.20;;;14.25;48.32
50011;BME280;35899;50.352;19.390;2023-03-30T09:42:27;97376.91;;;14.20;48.39
50011;BME280;35899;50.352;19.390;2023-03-30T09:44:56;97378.61;;;14.01;47.96
50011;BME280;35899;50.352;19.390;2023-03-30T09:47:25;97369.92;;;13.78;47.77
50011;BME280;35899;50.352;19.390;2023-03-30T09:49:59;97364.13;;;13.58;48.25
50011;BME280;35899;50.352;19.390;2023-03-30T09:52:27;97360.38;;;13.42;48.86
50011;BME280;35899;50.352;19.390;2023-03-30T09:54:56;97356.36;;;13.33;48.58
50011;BME280;35899;50.352;19.390;2023-03-30T09:57:24;97345.91;;;13.33;48.80
50011;BME280;35899;50.352;19.390;2023-03-30T09:59:51;97340.68;;;13.27;48.69
50011;BME280;35899;50.352;19.390;2023-03-30T10:02:19;97337.17;;;13.31;48.97
50011;BME280;35899;50.352;19.390;2023-03-30T10:07:20;97321.02;;;14.88;47.80
50011;BME280;35899;50.352;19.390;2023-03-30T10:10:34;97314.79;;;15.58;47.74
50011;BME280;35899;50.352;19.390;2023-03-30T10:12:34;97313.71;;;16.24;47.57
50011;BME280;35899;50.352;19.390;2023-03-30T10:15:03;97314.34;;;16.75;47.15
50011;BME280;35899;50.352;19.390;2023-03-30T10:17:30;97316.25;;;17.25;45.57
50011;BME280;35899;50.352;19.390;2023-03-30T10:20:21;97306.81;;;17.44;44.29
50011;BME280;35899;50.352;19.390;2023-03-30T10:22:54;97308.70;;;17.82;43.30
50011;BME280;35899;50.352;19.390;2023-03-30T10:25:23;97305.20;;;18.28;42.31
50011;BME280;35899;50.352;19.390;2023-03-30T10:27:53;97295.21;;;18.84;41.18
50011;BME280;35899;50.352;19.390;2023-03-30T10:30:21;97292.65;;;19.12;41.24
50011;BME280;35899;50.352;19.390;2023-03-30T10:32:48;97293.22;;;19.09;40.48
50011;BME280;35899;50.352;19.390;2023-03-30T10:38:14;97288.41;;;18.10;40.57
50011;BME280;35899;50.352;19.390;2023-03-30T10:40:58;97289.53;;;17.65;40.83
50011;BME280;35899;50.352;19.390;2023-03-30T10:43:26;97285.40;;;17.30;41.29
50011;BME280;35899;50.352;19.390;2023-03-30T10:46:05;97280.20;;;16.99;41.35
50011;BME280;35899;50.352;19.390;2023-03-30T10:56:32;97263.61;;;16.96;42.57
50011;BME280;35899;50.352;19.390;2023-03-30T11:04:17;97247.88;;;18.26;41.29
50011;BME280;35899;50.352;19.390;2023-03-30T11:06:50;97244.11;;;18.23;40.80
50011;BME280;35899;50.352;19.390;2023-03-30T11:09:19;97238.27;;;18.05;40.82
50011;BME280;35899;50.352;19.390;2023-03-30T11:11:48;97235.66;;;18.25;40.98
50011;BME280;35899;50.352;19.390;2023-03-30T11:14:18;97233.89;;;18.31;41.13
50011;BME280;35899;50.352;19.390;2023-03-30T11:16:48;97230.41;;;18.65;40.58
50011;BME280;35899;50.352;19.390;2023-03-30T11:26:44;97225.63;;;20.85;37.85
50011;BME280;35899;50.352;19.390;2023-03-30T11:29:25;97217.54;;;21.82;35.26
50011;BME280;35899;50.352;19.390;2023-03-30T11:34:43;97214.19;;;23.52;35.49
50011;BME280;35899;50.352;19.390;2023-03-30T11:37:18;97218.23;;;24.69;34.46
50011;BME280;35899;50.352;19.390;2023-03-30T11:39:54;97222.98;;;23.90;33.80
50011;BME280;35899;50.352;19.390;2023-03-30T11:42:24;97233.15;;;22.57;34.10
50011;BME280;35899;50.352;19.390;2023-03-30T11:44:55;97229.02;;;21.09;34.93
50011;BME280;35899;50.352;19.390;2023-03-30T11:50:32;97221.67;;;18.39;37.56
50011;BME280;35899;50.352;19.390;2023-03-30T11:56:11;97210.26;;;16.65;40.13
50011;BME280;35899;50.352;19.390;2023-03-30T12:01:10;97200.96;;;15.73;41.70
50011;BME280;35899;50.352;19.390;2023-03-30T12:03:49;97194.55;;;15.45;42.33
50011;BME280;35899;50.352;19.390;2023-03-30T12:06:29;97191.70;;;15.30;43.32
50011;BME280;35899;50.352;19.390;2023-03-30T12:09:13;97186.70;;;15.22;43.71
50011;BME280;35899;50.352;19.390;2023-03-30T12:11:51;97184.22;;;15.18;44.10
50011;BME280;35899;50.352;19.390;2023-03-30T12:14:29;97181.33;;;15.22;44.61
50011;BME280;35899;50.352;19.390;2023-03-30T12:17:03;97174.14;;;15.28;44.42
50011;BME280;35899;50.352;19.390;2023-03-30T12:19:42;97182.89;;;15.35;44.68
50011;BME280;35899;50.352;19.390;2023-03-30T12:25:25;97181.95;;;15.57;45.02
50011;BME280;35899;50.352;19.390;2023-03-30T12:33:33;97190.20;;;15.98;44.81
50011;BME280;35899;50.352;19.390;2023-03-30T12:36:20;97185.63;;;15.98;44.54
50011;BME280;35899;50.352;19.390;2023-03-30T12:38:46;97186.80;;;15.96;44.62
50011;BME280;35899;50.352;19.390;2023-03-30T12:41:20;97182.29;;;16.14;44.88
50011;BME280;35899;50.352;19.390;2023-03-30T12:46:18;97185.67;;;16.25;45.02
50011;BME280;35899;50.352;19.390;2023-03-30T12:48:57;97178.76;;;16.21;45.47
50011;BME280;35899;50.352;19.390;2023-03-30T12:51:43;97177.98;;;16.31;45.89
50011;BME280;35899;50.352;19.390;2023-03-30T12:56:57;97178.86;;;16.23;46.49
50011;BME280;35899;50.352;19.390;2023-03-30T13:02:11;97174.14;;;15.86;46.59
50011;BME280;35899;50.352;19.390;2023-03-30T13:04:44;97177.35;;;15.57;46.95
50011;BME280;35899;50.352;19.390;2023-03-30T13:07:16;97177.09;;;15.31;47.56
50011;BME280;35899;50.352;19.390;2023-03-30T13:09:55;97173.83;;;15.07;47.94
50011;BME280;35899;50.352;19.390;2023-03-30T13:12:36;97175.59;;;14.82;48.07
50011;BME280;35899;50.352;19.390;2023-03-30T13:17:54;97177.48;;;14.39;49.30
50011;BME280;35899;50.352;19.390;2023-03-30T13:20:32;97182.42;;;14.24;50.12
50011;BME280;35899;50.352;19.390;2023-03-30T13:23:59;97182.84;;;14.11;50.56
50011;BME280;35899;50.352;19.390;2023-03-30T13:28:43;97178.45;;;14.06;52.36
50011;BME280;35899;50.352;19.390;2023-03-30T13:31:20;97183.73;;;14.05;52.77
50011;BME280;35899;50.352;19.390;2023-03-30T13:34:00;97186.94;;;14.14;52.98
50011;BME280;35899;50.352;19.390;2023-03-30T13:36:31;97188.09;;;14.11;52.85
50011;BME280;35899;50.352;19.390;2023-03-30T13:39:05;97185.08;;;14.00;53.19
50011;BME280;35899;50.352;19.390;2023-03-30T13:44:25;97182.37;;;13.80;53.79
50011;BME280;35899;50.352;19.390;2023-03-30T13:52:11;97170.54;;;13.54;54.49
50011;BME280;35899;50.352;19.390;2023-03-30T13:57:35;97185.30;;;13.51;54.31
50011;BME280;35899;50.352;19.390;2023-03-30T14:00:08;97183.92;;;13.52;54.55
50011;BME280;35899;50.352;19.390;2023-03-30T14:02:52;97182.25;;;13.55;54.67
50011;BME280;35899;50.352;19.390;2023-03-30T14:05:20;97177.76;;;13.55;54.68
50011;BME280;35899;50.352;19.390;2023-03-30T14:07:48;97175.65;;;13.55;54.67
50011;BME280;35899;50.352;19.390;2023-03-30T14:10:16;97179.16;;;13.56;54.83
50011;BME280;35899;50.352;19.390;2023-03-30T14:12:43;97173.11;;;13.56;54.99
50011;BME280;35899;50.352;19.390;2023-03-30T14:15:23;97176.06;;;13.55;55.18
50011;BME280;35899;50.352;19.390;2023-03-30T14:17:54;97177.61;;;13.51;55.36
50011;BME280;35899;50.352;19.390;2023-03-30T14:25:45;97175.23;;;13.41;56.27
50011;BME280;35899;50.352;19.390;2023-03-30T14:28:12;97176.30;;;13.42;56.38
50011;BME280;35899;50.352;19.390;2023-03-30T14:30:46;97173.50;;;13.48;56.66
50011;BME280;35899;50.352;19.390;2023-03-30T14:33:14;97169.80;;;13.60;56.74
50011;BME280;35899;50.352;19.390;2023-03-30T14:35:41;97167.11;;;13.70;56.82
50011;BME280;35899;50.352;19.390;2023-03-30T14:38:40;97162.18;;;13.80;56.78
50011;BME280;35899;50.352;19.390;2023-03-30T14:41:13;97154.53;;;13.92;56.66
50011;BME280;35899;50.352;19.390;2023-03-30T14:43:40;97157.98;;;14.00;56.49
50011;BME280;35899;50.352;19.390;2023-03-30T14:46:09;97157.98;;;14.04;56.75
50011;BME280;35899;50.352;19.390;2023-03-30T14:48:38;97152.45;;;14.03;56.85
50011;BME280;35899;50.352;19.390;2023-03-30T14:51:24;97154.13;;;13.97;57.06
50011;BME280;35899;50.352;19.390;2023-03-30T14:53:52;97144.25;;;13.87;57.53
50011;BME280;35899;50.352;19.390;2023-03-30T14:56:20;97146.02;;;13.80;57.83
50011;BME280;35899;50.352;19.390;2023-03-30T14:58:48;97145.95;;;13.73;58.05
50011;BME280;35899;50.352;19.390;2023-03-30T15:01:17;97143.30;;;13.70;58.12
50011;BME280;35899;50.352;19.390;2023-03-30T15:03:44;97146.26;;;13.64;58.23
50011;BME280;35899;50.352;19.390;2023-03-30T15:06:13;97144.36;;;13.59;58.41
50011;BME280;35899;50.352;19.390;2023-03-30T15:08:43;97140.21;;;13.53;58.69
50011;BME280;35899;50.352;19.390;2023-03-30T15:11:11;97140.52;;;13.48;59.17
50011;BME280;35899;50.352;19.390;2023-03-30T15:13:40;97144.07;;;13.42;59.51
50011;BME280;35899;50.352;19.390;2023-03-30T15:16:08;97143.09;;;13.34;59.73
50011;BME280;35899;50.352;19.390;2023-03-30T15:18:39;97136.30;;;13.27;59.91
50011;BME280;35899;50.352;19.390;2023-03-30T15:21:07;97141.65;;;13.22;60.38
50011;BME280;35899;50.352;19.390;2023-03-30T15:23:35;97142.20;;;13.15;60.59
50011;BME280;35899;50.352;19.390;2023-03-30T15:26:03;97138.17;;;13.08;60.84
50011;BME280;35899;50.352;19.390;2023-03-30T15:28:37;97138.73;;;12.96;61.43
50011;BME280;35899;50.352;19.390;2023-03-30T15:31:08;97134.34;;;12.78;62.69
50011;BME280;35899;50.352;19.390;2023-03-30T15:33:38;97131.92;;;12.58;63.13
50011;BME280;35899;50.352;19.390;2023-03-30T15:36:10;97128.34;;;12.44;63.51
50011;BME280;35899;50.352;19.390;2023-03-30T15:38:48;97124.81;;;12.33;63.93
50011;BME280;35899;50.352;19.390;2023-03-30T15:41:15;97125.37;;;12.21;64.68
50011;BME280;35899;50.352;19.390;2023-03-30T15:43:55;97122.11;;;12.09;65.19